createdAt,value
2018-09-20T00:00:36.519Z,8.13
2018-09-20T00:03:04.481Z,9.37
2018-09-20T00:05:32.567Z,7.60
2018-09-20T00:08:00.619Z,7.33
2018-09-20T00:10:28.562Z,7.33
2018-09-20T00:12:56.578Z,8.30
2018-09-20T00:15:24.574Z,7.70
2018-09-20T00:17:52.792Z,7.50
2018-09-20T00:20:21.028Z,8.03
2018-09-20T00:22:49.328Z,8.27
2018-09-20T00:25:17.671Z,9.10
2018-09-20T00:27:46.237Z,8.47
2018-09-20T00:30:15.060Z,9.00
2018-09-20T00:32:43.548Z,7.77
2018-09-20T00:35:11.950Z,7.93
2018-09-20T00:37:40.100Z,7.27
2018-09-20T00:40:08.940Z,7.73
2018-09-20T00:42:37.985Z,7.70
2018-09-20T00:45:06.165Z,8.60
2018-09-20T00:47:34.161Z,6.90
2018-09-20T00:50:02.105Z,7.93
2018-09-20T00:52:30.089Z,8.27
2018-09-20T00:54:58.139Z,8.00
2018-09-20T00:57:26.130Z,8.00
2018-09-20T00:59:54.337Z,8.50
2018-09-20T01:02:22.449Z,8.03
2018-09-20T01:04:50.766Z,8.33
2018-09-20T01:07:18.969Z,8.77
2018-09-20T01:09:47.232Z,8.50
2018-09-20T01:12:22.217Z,8.00
2018-09-20T01:14:50.508Z,7.93
2018-09-20T01:17:19.062Z,8.70
2018-09-20T01:19:47.248Z,9.00
2018-09-20T01:22:15.812Z,9.50
2018-09-20T01:24:44.418Z,8.17
2018-09-20T01:27:12.835Z,7.80
2018-09-20T01:29:41.207Z,7.00
2018-09-20T01:32:09.457Z,6.27
2018-09-20T01:34:37.825Z,8.20
2018-09-20T01:37:05.921Z,7.33
2018-09-20T01:39:33.902Z,7.60
2018-09-20T01:42:01.846Z,7.53
2018-09-20T01:44:29.809Z,8.00
2018-09-20T01:46:57.902Z,7.57
2018-09-20T01:49:25.836Z,6.40
2018-09-20T01:51:53.838Z,7.83
2018-09-20T01:54:21.937Z,7.60
2018-09-20T01:56:50.329Z,6.70
2018-09-20T01:59:18.782Z,7.90
2018-09-20T02:01:47.107Z,8.70
2018-09-20T02:04:15.501Z,7.27
2018-09-20T02:06:43.821Z,7.47
2018-09-20T02:09:12.326Z,8.00
2018-09-20T02:11:40.923Z,8.00
2018-09-20T02:14:09.293Z,6.70
2018-09-20T02:16:38.216Z,9.70
2018-09-20T02:19:06.607Z,7.50
2018-09-20T02:21:34.642Z,7.47
2018-09-20T02:24:02.633Z,7.43
2018-09-20T02:26:30.596Z,8.07
2018-09-20T02:28:58.620Z,8.10
2018-09-20T02:31:26.580Z,9.00
2018-09-20T02:33:54.603Z,7.60
2018-09-20T02:36:22.625Z,8.03
2018-09-20T02:38:50.880Z,14.07
2018-09-20T02:41:19.239Z,14.70
2018-09-20T02:43:47.459Z,9.27
2018-09-20T02:46:16.046Z,7.87
2018-09-20T02:48:44.519Z,8.30
2018-09-20T02:51:12.962Z,9.27
2018-09-20T02:53:41.486Z,8.37
2018-09-20T02:56:09.795Z,8.20
2018-09-20T02:58:37.814Z,8.50
2018-09-20T03:01:05.795Z,7.70
2018-09-20T03:03:33.940Z,11.50
2018-09-20T03:06:03.076Z,8.27
2018-09-20T03:08:31.038Z,9.30
2018-09-20T03:10:59.049Z,9.83
2018-09-20T03:13:27.047Z,9.47
2018-09-20T03:15:55.232Z,8.77
2018-09-20T03:18:23.257Z,9.20
2018-09-20T03:20:51.516Z,9.00
2018-09-20T03:23:19.600Z,8.47
2018-09-20T03:25:47.884Z,9.40
2018-09-20T03:28:16.277Z,8.70
2018-09-20T03:30:44.732Z,9.60
2018-09-20T03:33:13.546Z,8.80
2018-09-20T03:35:42.289Z,8.63
2018-09-20T03:38:11.086Z,9.10
2018-09-20T03:40:39.127Z,8.17
2018-09-20T03:43:07.097Z,7.17
2018-09-20T03:45:35.090Z,9.27
2018-09-20T03:48:04.157Z,10.57
2018-09-20T03:50:32.283Z,8.60
2018-09-20T03:53:00.237Z,9.40
2018-09-20T03:55:28.293Z,10.47
2018-09-20T03:57:56.393Z,8.17
2018-09-20T04:00:24.525Z,10.97
2018-09-20T04:02:52.517Z,8.17
2018-09-20T04:05:20.768Z,9.00
2018-09-20T04:07:48.976Z,7.90
2018-09-20T04:10:17.239Z,8.20
2018-09-20T04:12:45.813Z,7.87
2018-09-20T04:15:14.508Z,8.13
2018-09-20T04:17:43.627Z,8.90
2018-09-20T04:20:12.777Z,7.43
2018-09-20T04:22:42.147Z,7.37
2018-09-20T04:25:12.098Z,6.80
2018-09-20T04:27:40.431Z,7.00
2018-09-20T04:30:08.666Z,7.73
2018-09-20T04:32:36.709Z,7.40
2018-09-20T04:35:04.770Z,7.93
2018-09-20T04:37:32.720Z,7.30
2018-09-20T04:40:00.859Z,7.97
2018-09-20T04:42:29.173Z,8.13
2018-09-20T04:44:57.212Z,7.70
2018-09-20T04:47:25.286Z,8.67
2018-09-20T04:49:54.923Z,8.80
2018-09-20T04:52:24.286Z,7.00
2018-09-20T04:54:53.215Z,8.00
2018-09-20T04:57:21.768Z,7.40
2018-09-20T04:59:50.399Z,8.73
2018-09-20T05:02:18.783Z,8.03
2018-09-20T05:04:47.755Z,9.37
2018-09-20T05:07:16.151Z,8.43
2018-09-20T05:09:44.647Z,7.40
2018-09-20T05:12:13.037Z,8.70
2018-09-20T05:14:42.300Z,8.47
2018-09-20T05:17:10.716Z,7.33
2018-09-20T05:19:39.093Z,6.70
2018-09-20T05:22:07.593Z,8.90
2018-09-20T05:24:36.005Z,7.90
2018-09-20T05:27:04.069Z,8.03
2018-09-20T05:29:32.226Z,8.90
2018-09-20T05:32:00.482Z,7.60
2018-09-20T05:34:28.894Z,7.13
2018-09-20T05:36:57.113Z,7.40
2018-09-20T05:39:25.359Z,8.77
2018-09-20T05:41:54.071Z,8.40
2018-09-20T05:44:22.700Z,7.80
2018-09-20T05:46:51.631Z,7.63
2018-09-20T05:49:20.074Z,9.70
2018-09-20T05:51:48.748Z,9.50
2018-09-20T05:54:17.413Z,7.70
2018-09-20T05:56:46.364Z,7.70
2018-09-20T05:59:15.711Z,8.57
2018-09-20T06:01:44.273Z,8.73
2018-09-20T06:04:12.746Z,10.00
2018-09-20T06:06:41.510Z,8.13
2018-09-20T06:09:10.193Z,7.90
2018-09-20T06:11:38.709Z,8.60
2018-09-20T06:14:07.194Z,8.17
2018-09-20T06:16:35.643Z,7.67
2018-09-20T06:19:03.772Z,9.50
2018-09-20T06:21:31.896Z,8.13
2018-09-20T06:23:59.905Z,7.77
2018-09-20T06:26:28.240Z,8.47
2018-09-20T06:28:56.329Z,7.97
2018-09-20T06:31:24.725Z,8.03
2018-09-20T06:33:53.087Z,7.13
2018-09-20T06:36:21.594Z,7.70
2018-09-20T06:38:56.397Z,8.20
2018-09-20T06:41:24.740Z,7.30
2018-09-20T06:43:53.061Z,6.63
2018-09-20T06:46:21.947Z,6.70
2018-09-20T06:48:50.543Z,6.60
2018-09-20T06:51:19.045Z,6.83
2018-09-20T06:53:47.649Z,6.37
2018-09-20T06:56:15.960Z,7.53
2018-09-20T06:58:45.038Z,12.60
2018-09-20T07:01:13.907Z,6.90
2018-09-20T07:03:42.826Z,7.27
2018-09-20T07:06:11.501Z,6.53
2018-09-20T07:08:39.880Z,6.77
2018-09-20T07:11:08.455Z,15.83
2018-09-20T07:13:36.600Z,9.50
2018-09-20T07:16:05.248Z,6.60
2018-09-20T07:18:33.739Z,5.70
2018-09-20T07:21:01.995Z,6.70
2018-09-20T07:23:30.082Z,6.47
2018-09-20T07:25:58.260Z,7.20
2018-09-20T07:28:26.503Z,6.13
2018-09-20T07:30:55.768Z,7.00
2018-09-20T07:33:24.003Z,6.00
2018-09-20T07:35:52.959Z,6.47
2018-09-20T07:38:21.477Z,7.40
2018-09-20T07:40:49.830Z,6.30
2018-09-20T07:43:18.592Z,7.83
2018-09-20T07:45:47.412Z,7.00
2018-09-20T07:48:16.021Z,8.37
2018-09-20T07:50:44.823Z,7.07
2018-09-20T07:53:13.743Z,6.77
2018-09-20T07:55:42.734Z,7.40
2018-09-20T07:58:11.979Z,6.27
2018-09-20T08:00:40.495Z,6.40
2018-09-20T08:03:09.296Z,6.40
2018-09-20T08:05:37.489Z,7.27
2018-09-20T08:08:05.815Z,6.13
2018-09-20T08:10:34.835Z,6.03
2018-09-20T08:13:04.876Z,5.70
2018-09-20T08:15:33.161Z,5.03
2018-09-20T08:18:01.358Z,5.87
2018-09-20T08:20:29.680Z,6.10
2018-09-20T08:22:58.413Z,5.70
2018-09-20T08:25:26.494Z,6.73
2018-09-20T08:27:54.756Z,5.70
2018-09-20T08:30:23.610Z,6.50
2018-09-20T08:32:52.224Z,10.47
2018-09-20T08:35:20.509Z,5.30
2018-09-20T08:37:48.991Z,5.20
2018-09-20T08:40:18.637Z,5.27
2018-09-20T08:42:47.063Z,6.47
2018-09-20T08:45:15.781Z,5.30
2018-09-20T08:47:44.166Z,5.53
2018-09-20T08:50:13.101Z,5.70
2018-09-20T08:52:42.907Z,6.00
2018-09-20T08:55:12.658Z,5.40
2018-09-20T08:57:46.754Z,4.43
2018-09-20T09:00:15.784Z,5.00
2018-09-20T09:02:44.338Z,5.00
2018-09-20T09:05:14.247Z,4.83
2018-09-20T09:07:43.054Z,5.23
2018-09-20T09:10:12.011Z,5.37
2018-09-20T09:12:41.277Z,4.63
2018-09-20T09:15:10.187Z,5.67
2018-09-20T09:17:38.717Z,5.00
2018-09-20T09:20:07.150Z,4.67
2018-09-20T09:22:35.777Z,4.73
2018-09-20T09:25:04.441Z,5.27
2018-09-20T09:27:32.607Z,5.20
2018-09-20T09:32:34.014Z,4.87
2018-09-20T09:35:02.279Z,6.07
2018-09-20T09:37:31.450Z,5.23
2018-09-20T09:40:05.170Z,4.70
2018-09-20T09:42:33.943Z,5.63
2018-09-20T09:45:02.205Z,5.10
2018-09-20T09:47:30.478Z,5.63
2018-09-20T09:49:59.093Z,4.87
2018-09-20T09:52:27.596Z,5.27
2018-09-20T09:54:56.046Z,5.63
2018-09-20T09:57:24.219Z,6.23
2018-09-20T09:59:53.153Z,5.80
2018-09-20T10:02:21.958Z,4.80
2018-09-20T10:04:52.082Z,5.70
2018-09-20T10:07:20.966Z,5.63
2018-09-20T10:09:49.459Z,6.53
2018-09-20T10:12:18.594Z,5.30
2018-09-20T10:14:47.483Z,5.37
2018-09-20T10:17:16.278Z,5.57
2018-09-20T10:19:45.198Z,5.40
2018-09-20T10:22:15.385Z,5.87
2018-09-20T10:24:44.481Z,5.43
2018-09-20T10:27:13.352Z,4.37
2018-09-20T10:29:42.505Z,5.70
2018-09-20T10:32:11.402Z,4.63
2018-09-20T10:34:40.357Z,6.67
2018-09-20T10:37:09.698Z,4.60
2018-09-20T10:39:38.705Z,5.90
2018-09-20T10:42:06.832Z,6.10
2018-09-20T10:44:35.658Z,6.20
2018-09-20T10:47:04.463Z,4.80
2018-09-20T10:49:32.944Z,4.37
2018-09-20T10:52:01.088Z,5.53
2018-09-20T10:54:29.379Z,5.73
2018-09-20T10:56:58.395Z,5.23
2018-09-20T10:59:27.295Z,4.50
2018-09-20T11:01:55.876Z,7.77
2018-09-20T11:04:24.322Z,4.70
2018-09-20T11:06:53.093Z,5.17
2018-09-20T11:09:22.398Z,5.00
2018-09-20T11:11:51.503Z,3.83
2018-09-20T11:14:21.487Z,6.80
2018-09-20T11:16:51.420Z,4.43
2018-09-20T11:19:20.125Z,3.60
2018-09-20T11:21:49.125Z,4.43
2018-09-20T11:24:17.901Z,6.17
2018-09-20T11:26:46.657Z,4.97
2018-09-20T11:29:16.626Z,4.90
2018-09-20T11:31:45.903Z,4.47
2018-09-20T11:34:14.800Z,4.57
2018-09-20T11:36:44.568Z,4.70
2018-09-20T11:39:14.384Z,5.07
2018-09-20T11:41:44.200Z,4.80
2018-09-20T11:44:12.807Z,4.30
2018-09-20T11:46:41.691Z,4.20
2018-09-20T11:49:10.562Z,3.43
2018-09-20T11:51:38.913Z,4.20
2018-09-20T11:54:07.455Z,4.30
2018-09-20T11:56:35.705Z,4.10
2018-09-20T11:59:04.063Z,12.90
2018-09-20T12:01:32.311Z,4.90
2018-09-20T12:04:00.875Z,3.70
2018-09-20T12:06:29.093Z,4.70
2018-09-20T12:09:31.746Z,5.20
2018-09-20T12:11:59.924Z,4.73
2018-09-20T12:14:28.080Z,5.20
2018-09-20T12:16:56.360Z,4.03
2018-09-20T12:19:25.249Z,3.93
2018-09-20T12:21:54.094Z,5.03
2018-09-20T12:24:22.848Z,5.33
2018-09-20T12:26:52.196Z,4.57
2018-09-20T12:29:21.575Z,4.77
2018-09-20T12:31:50.780Z,4.57
2018-09-20T12:34:20.133Z,4.77
2018-09-20T12:36:48.751Z,4.50
2018-09-20T12:39:17.794Z,5.50
2018-09-20T12:41:46.847Z,4.50
2018-09-20T12:44:15.363Z,5.30
2018-09-20T12:46:44.365Z,4.83
2018-09-20T12:49:13.338Z,5.00
2018-09-20T12:51:42.840Z,5.67
2018-09-20T12:54:11.536Z,4.90
2018-09-20T12:56:40.301Z,3.97
2018-09-20T12:59:08.569Z,5.63
2018-09-20T13:01:36.754Z,5.40
2018-09-20T13:04:04.892Z,4.87
2018-09-20T13:06:33.304Z,3.63
2018-09-20T13:09:01.530Z,4.73
2018-09-20T13:11:29.885Z,5.00
2018-09-20T13:13:58.282Z,4.73
2018-09-20T13:19:01.036Z,4.57
2018-09-20T13:21:29.244Z,7.07
2018-09-20T13:23:57.369Z,5.23
2018-09-20T13:26:26.983Z,4.50
2018-09-20T13:28:55.692Z,3.90
2018-09-20T13:31:24.511Z,4.63
2018-09-20T13:33:53.348Z,4.27
2018-09-20T13:36:22.437Z,5.60
2018-09-20T13:38:51.521Z,4.53
2018-09-20T13:41:20.415Z,5.20
2018-09-20T13:43:49.302Z,4.70
2018-09-20T13:46:17.893Z,4.73
2018-09-20T13:48:46.411Z,3.93
2018-09-20T13:51:15.588Z,3.77
2018-09-20T13:53:45.128Z,4.77
2018-09-20T13:56:16.577Z,3.13
2018-09-20T13:58:49.450Z,4.40
2018-09-20T14:01:18.911Z,4.87
2018-09-20T14:03:48.555Z,4.40
2018-09-20T14:06:17.277Z,3.77
2018-09-20T14:08:47.567Z,3.80
2018-09-20T14:11:16.712Z,3.30
2018-09-20T14:13:45.745Z,4.40
2018-09-20T14:16:15.796Z,3.90
2018-09-20T14:18:44.449Z,7.07
2018-09-20T14:21:13.752Z,3.13
2018-09-20T14:23:43.374Z,4.13
2018-09-20T14:26:13.148Z,4.50
2018-09-20T14:28:43.160Z,3.50
2018-09-20T14:31:12.642Z,3.40
2018-09-20T14:33:42.155Z,3.80
2018-09-20T14:36:10.765Z,4.17
2018-09-20T14:38:39.289Z,3.97
2018-09-20T14:41:08.490Z,4.30
2018-09-20T14:43:39.239Z,3.90
2018-09-20T14:46:07.787Z,3.70
2018-09-20T14:48:36.824Z,5.03
2018-09-20T14:51:05.123Z,4.30
2018-09-20T14:53:36.324Z,3.97
2018-09-20T14:56:04.490Z,4.50
2018-09-20T14:58:35.633Z,4.13
2018-09-20T15:01:04.920Z,4.23
2018-09-20T15:03:33.257Z,5.37
2018-09-20T15:06:01.739Z,4.60
2018-09-20T15:08:30.650Z,4.77
2018-09-20T15:11:03.447Z,4.37
2018-09-20T15:13:32.342Z,3.80
2018-09-20T15:16:03.146Z,5.07
2018-09-20T15:18:31.554Z,4.70
2018-09-20T15:20:59.835Z,4.50
2018-09-20T15:23:28.177Z,3.67
2018-09-20T15:25:56.886Z,4.97
2018-09-20T15:28:25.318Z,4.10
2018-09-20T15:30:54.547Z,4.70
2018-09-20T15:33:23.495Z,4.80
2018-09-20T15:35:53.206Z,3.87
2018-09-20T15:38:22.195Z,4.90
2018-09-20T15:40:50.655Z,4.13
2018-09-20T15:43:19.630Z,5.23
2018-09-20T15:45:48.351Z,4.23
2018-09-20T15:48:17.484Z,4.87
2018-09-20T15:50:46.523Z,4.70
2018-09-20T15:53:15.524Z,4.67
2018-09-20T15:55:44.527Z,4.27
2018-09-20T15:58:13.812Z,4.43
2018-09-20T16:00:42.906Z,4.97
2018-09-20T16:03:12.105Z,4.77
2018-09-20T16:05:40.993Z,4.97
2018-09-20T16:08:10.000Z,4.80
2018-09-20T16:10:38.925Z,5.27
2018-09-20T16:13:07.078Z,3.30
2018-09-20T16:15:35.449Z,4.20
2018-09-20T16:18:03.855Z,4.27
2018-09-20T16:20:32.758Z,4.80
2018-09-20T16:23:01.058Z,5.00
2018-09-20T16:25:29.926Z,4.43
2018-09-20T16:28:06.158Z,4.13
2018-09-20T16:30:42.739Z,3.90
2018-09-20T16:33:19.171Z,4.60
2018-09-20T16:35:53.363Z,4.20
2018-09-20T16:38:53.819Z,5.27
2018-09-20T16:41:26.422Z,6.80
2018-09-20T16:43:54.582Z,10.40
2018-09-20T16:46:23.870Z,5.07
2018-09-20T16:48:52.533Z,6.30
2018-09-20T16:51:21.013Z,5.57
2018-09-20T16:53:49.852Z,5.23
2018-09-20T16:56:18.237Z,5.80
2018-09-20T16:58:49.920Z,5.30
2018-09-20T17:01:20.252Z,4.73
2018-09-20T17:03:49.136Z,4.53
2018-09-20T17:06:18.383Z,5.20
2018-09-20T17:08:48.814Z,4.90
2018-09-20T17:11:18.069Z,4.97
2018-09-20T17:13:47.320Z,4.53
2018-09-20T17:16:16.455Z,4.97
2018-09-20T17:18:45.100Z,6.13
2018-09-20T17:21:14.934Z,5.10
2018-09-20T17:23:45.598Z,5.60
2018-09-20T17:26:14.606Z,6.93
2018-09-20T17:28:44.638Z,6.13
2018-09-20T17:31:14.081Z,6.87
2018-09-20T17:33:44.577Z,6.07
2018-09-20T17:36:13.750Z,6.07
2018-09-20T17:38:44.471Z,6.37
2018-09-20T17:41:16.960Z,7.03
2018-09-20T17:43:49.802Z,6.60
2018-09-20T17:46:19.642Z,7.37
2018-09-20T17:48:48.527Z,6.80
2018-09-20T17:51:18.262Z,8.07
2018-09-20T17:53:50.080Z,6.47
2018-09-20T17:56:19.725Z,7.43
2018-09-20T17:58:49.409Z,7.60
2018-09-20T18:01:18.553Z,7.80
2018-09-20T18:03:47.244Z,8.47
2018-09-20T18:06:16.323Z,8.30
2018-09-20T18:08:46.135Z,7.40
2018-09-20T18:11:15.125Z,7.03
2018-09-20T18:13:44.310Z,7.13
2018-09-20T18:16:24.155Z,7.33
2018-09-20T18:18:53.120Z,7.10
2018-09-20T18:21:21.969Z,7.07
2018-09-20T18:23:51.341Z,6.70
2018-09-20T18:26:20.092Z,8.47
2018-09-20T18:28:52.394Z,6.40
2018-09-20T18:31:21.775Z,7.80
2018-09-20T18:33:54.431Z,7.23
2018-09-20T18:36:24.144Z,7.30
2018-09-20T18:38:52.619Z,6.93
2018-09-20T18:41:21.634Z,10.97
2018-09-20T18:43:50.245Z,8.30
2018-09-20T18:46:18.766Z,7.60
2018-09-20T18:48:47.590Z,8.73
2018-09-20T18:51:16.512Z,8.37
2018-09-20T18:53:45.847Z,8.33
2018-09-20T18:56:14.828Z,7.80
2018-09-20T18:58:43.732Z,8.17
2018-09-20T19:01:12.505Z,8.20
2018-09-20T19:03:41.838Z,9.27
2018-09-20T19:06:10.355Z,8.37
2018-09-20T19:08:39.129Z,9.73
2018-09-20T19:11:07.208Z,9.47
2018-09-20T19:13:35.566Z,9.00
2018-09-20T19:16:03.722Z,8.50
2018-09-20T19:18:31.713Z,8.30
2018-09-20T19:21:00.454Z,8.57
2018-09-20T19:23:28.660Z,9.20
2018-09-20T19:25:56.891Z,9.77
2018-09-20T19:28:25.335Z,9.23
2018-09-20T19:30:53.844Z,8.97
2018-09-20T19:33:22.544Z,8.63
2018-09-20T19:35:56.317Z,9.13
2018-09-20T19:38:24.897Z,8.93
2018-09-20T19:40:54.803Z,9.70
2018-09-20T19:43:23.285Z,9.13
2018-09-20T19:45:52.153Z,11.10
2018-09-20T19:48:20.618Z,11.27
2018-09-20T19:50:49.250Z,10.97
2018-09-20T19:53:17.553Z,9.60
2018-09-20T19:55:46.514Z,9.00
2018-09-20T19:58:15.570Z,10.43
2018-09-20T20:00:44.083Z,9.90
2018-09-20T20:03:13.309Z,11.07
2018-09-20T20:05:43.017Z,10.33
2018-09-20T20:08:15.422Z,11.37
2018-09-20T20:10:45.490Z,9.80
2018-09-20T20:13:17.061Z,10.50
2018-09-20T20:15:46.370Z,9.70
2018-09-20T20:18:15.348Z,10.83
2018-09-20T20:20:45.030Z,10.47
2018-09-20T20:23:13.688Z,11.73
2018-09-20T20:25:43.882Z,10.47
2018-09-20T20:28:12.662Z,10.37
2018-09-20T20:30:41.533Z,9.20
2018-09-20T20:33:09.728Z,9.40
2018-09-20T20:35:39.192Z,10.03
2018-09-20T20:38:07.304Z,10.70
2018-09-20T20:40:35.482Z,11.40
2018-09-20T20:43:03.717Z,10.00
2018-09-20T20:45:31.909Z,11.87
2018-09-20T20:48:00.041Z,10.57
2018-09-20T20:50:28.072Z,11.03
2018-09-20T20:52:56.800Z,11.60
2018-09-20T20:55:25.079Z,9.50
2018-09-20T20:57:53.628Z,10.70
2018-09-20T21:00:22.325Z,11.47
2018-09-20T21:02:50.989Z,12.30
2018-09-20T21:05:19.612Z,10.87
2018-09-20T21:07:48.370Z,12.10
2018-09-20T21:10:17.010Z,11.37
2018-09-20T21:12:45.478Z,11.83
2018-09-20T21:15:15.210Z,10.40
2018-09-20T21:17:43.986Z,11.53
2018-09-20T21:20:13.173Z,11.70
2018-09-20T21:22:41.683Z,11.70
2018-09-20T21:25:10.508Z,11.10
2018-09-20T21:27:38.905Z,11.93
2018-09-20T21:30:07.091Z,11.63
2018-09-20T21:32:35.142Z,11.57
2018-09-20T21:35:03.271Z,11.83
2018-09-20T21:37:31.486Z,11.37
2018-09-20T21:39:59.504Z,11.37
2018-09-20T21:42:27.705Z,10.80
2018-09-20T21:44:55.861Z,12.63
2018-09-20T21:47:24.048Z,11.00
2018-09-20T21:49:52.299Z,12.30
2018-09-20T21:52:20.571Z,11.23
2018-09-20T21:54:49.457Z,12.20
2018-09-20T21:57:18.191Z,9.83
2018-09-20T21:59:46.680Z,10.83
2018-09-20T22:02:19.378Z,10.37
2018-09-20T22:04:47.927Z,11.20
2018-09-20T22:07:16.561Z,10.93
2018-09-20T22:09:45.480Z,10.63
2018-09-20T22:12:14.026Z,10.60
2018-09-20T22:14:42.792Z,10.60
2018-09-20T22:17:12.173Z,10.30
2018-09-20T22:19:40.537Z,11.30
2018-09-20T22:22:08.809Z,10.20
2018-09-20T22:24:36.759Z,10.27
2018-09-20T22:27:04.881Z,10.27
2018-09-20T22:29:32.901Z,9.90
2018-09-20T22:32:00.917Z,10.67
2018-09-20T22:34:28.914Z,9.43
2018-09-20T22:36:57.005Z,9.73
2018-09-20T22:39:25.165Z,10.40
2018-09-20T22:41:53.322Z,9.97
2018-09-20T22:44:21.498Z,10.60
2018-09-20T22:46:49.939Z,10.57
2018-09-20T22:49:18.420Z,9.47
2018-09-20T22:51:47.289Z,10.50
2018-09-20T22:54:15.875Z,12.20
2018-09-20T22:56:44.567Z,10.83
2018-09-20T22:59:13.466Z,10.60
2018-09-20T23:01:41.907Z,10.10
2018-09-20T23:04:10.588Z,9.63
2018-09-20T23:06:38.791Z,9.40
2018-09-20T23:09:07.150Z,9.77
2018-09-20T23:11:35.126Z,9.37
2018-09-20T23:14:03.220Z,9.30
2018-09-20T23:16:33.193Z,7.70
2018-09-20T23:19:01.271Z,9.67
2018-09-20T23:21:29.193Z,8.93
2018-09-20T23:23:57.218Z,7.90
2018-09-20T23:26:25.325Z,9.97
2018-09-20T23:28:53.619Z,7.93
2018-09-20T23:31:21.915Z,8.73
2018-09-20T23:33:50.206Z,10.13
2018-09-20T23:36:18.417Z,8.80
2018-09-20T23:38:46.727Z,9.50
2018-09-20T23:41:15.012Z,7.90
2018-09-20T23:43:43.722Z,8.23
2018-09-20T23:46:12.046Z,8.13
2018-09-20T23:48:40.254Z,8.97
2018-09-20T23:51:08.604Z,8.97
2018-09-20T23:53:36.527Z,8.80
2018-09-20T23:56:04.524Z,9.50
2018-09-20T23:58:32.487Z,9.50
